sensor_id;sensor_type;location;lat;lon;timestamp;P1;durP1;ratioP1;P2;durP2;ratioP2
1545;SDS011;766;51.502;9.752;2023-12-14T00:00:14;5.85;;;3.47;;
1545;SDS011;766;51.502;9.752;2023-12-14T00:02:43;5.68;;;3.72;;
1545;SDS011;766;51.502;9.752;2023-12-14T00:05:12;6.35;;;3.60;;
1545;SDS011;766;51.502;9.752;2023-12-14T00:07:40;8.18;;;3.92;;
1545;SDS011;766;51.502;9.752;2023-12-14T00:10:09;7.25;;;4.57;;
1545;SDS011;766;51.502;9.752;2023-12-14T00:12:41;5.95;;;4.22;;
1545;SDS011;766;51.502;9.752;2023-12-14T00:15:19;4.75;;;3.50;;
1545;SDS011;766;51.502;9.752;2023-12-14T00:17:47;6.80;;;4.10;;
1545;SDS011;766;51.502;9.752;2023-12-14T00:20:16;5.93;;;4.40;;
1545;SDS011;766;51.502;9.752;2023-12-14T00:22:44;7.03;;;5.53;;
1545;SDS011;766;51.502;9.752;2023-12-14T00:25:13;6.85;;;4.88;;
1545;SDS011;766;51.502;9.752;2023-12-14T00:27:41;8.52;;;4.97;;
1545;SDS011;766;51.502;9.752;2023-12-14T00:30:10;10.02;;;5.25;;
1545;SDS011;766;51.502;9.752;2023-12-14T00:32:39;8.63;;;5.45;;
1545;SDS011;766;51.502;9.752;2023-12-14T00:35:07;6.35;;;5.20;;
1545;SDS011;766;51.502;9.752;2023-12-14T00:37:37;6.75;;;5.07;;
1545;SDS011;766;51.502;9.752;2023-12-14T00:40:05;10.13;;;5.70;;
1545;SDS011;766;51.502;9.752;2023-12-14T00:42:34;9.40;;;6.22;;
1545;SDS011;766;51.502;9.752;2023-12-14T00:45:03;10.07;;;7.00;;
1545;SDS011;766;51.502;9.752;2023-12-14T00:47:31;10.95;;;6.25;;
1545;SDS011;766;51.502;9.752;2023-12-14T00:50:00;9.95;;;6.85;;
1545;SDS011;766;51.502;9.752;2023-12-14T00:52:28;10.60;;;7.38;;
1545;SDS011;766;51.502;9.752;2023-12-14T00:54:58;12.68;;;8.75;;
1545;SDS011;766;51.502;9.752;2023-12-14T00:57:26;11.23;;;7.30;;
1545;SDS011;766;51.502;9.752;2023-12-14T00:59:55;13.52;;;8.05;;
1545;SDS011;766;51.502;9.752;2023-12-14T01:02:23;11.52;;;7.43;;
1545;SDS011;766;51.502;9.752;2023-12-14T01:04:51;11.75;;;7.55;;
1545;SDS011;766;51.502;9.752;2023-12-14T01:07:19;11.55;;;7.18;;
1545;SDS011;766;51.502;9.752;2023-12-14T01:09:47;12.18;;;7.50;;
1545;SDS011;766;51.502;9.752;2023-12-14T01:12:17;13.20;;;7.55;;
1545;SDS011;766;51.502;9.752;2023-12-14T01:14:46;13.82;;;7.70;;
1545;SDS011;766;51.502;9.752;2023-12-14T01:17:14;18.35;;;7.82;;
1545;SDS011;766;51.502;9.752;2023-12-14T01:19:45;15.10;;;7.18;;
1545;SDS011;766;51.502;9.752;2023-12-14T01:22:13;16.50;;;8.32;;
1545;SDS011;766;51.502;9.752;2023-12-14T01:24:42;11.98;;;7.63;;
1545;SDS011;766;51.502;9.752;2023-12-14T01:27:10;12.57;;;7.13;;
1545;SDS011;766;51.502;9.752;2023-12-14T01:29:43;10.60;;;6.70;;
1545;SDS011;766;51.502;9.752;2023-12-14T01:32:11;13.07;;;7.85;;
1545;SDS011;766;51.502;9.752;2023-12-14T01:34:39;13.02;;;7.80;;
1545;SDS011;766;51.502;9.752;2023-12-14T01:37:08;16.23;;;8.10;;
1545;SDS011;766;51.502;9.752;2023-12-14T01:39:36;12.73;;;7.68;;
1545;SDS011;766;51.502;9.752;2023-12-14T01:42:04;14.07;;;8.57;;
1545;SDS011;766;51.502;9.752;2023-12-14T01:44:35;11.27;;;7.10;;
1545;SDS011;766;51.502;9.752;2023-12-14T01:47:04;14.80;;;7.82;;
1545;SDS011;766;51.502;9.752;2023-12-14T01:49:33;12.70;;;7.90;;
1545;SDS011;766;51.502;9.752;2023-12-14T01:52:01;14.32;;;7.63;;
1545;SDS011;766;51.502;9.752;2023-12-14T01:54:29;16.27;;;7.78;;
1545;SDS011;766;51.502;9.752;2023-12-14T01:56:58;13.80;;;8.75;;
1545;SDS011;766;51.502;9.752;2023-12-14T01:59:26;11.50;;;7.53;;
1545;SDS011;766;51.502;9.752;2023-12-14T02:01:54;9.50;;;6.50;;
1545;SDS011;766;51.502;9.752;2023-12-14T02:04:25;7.90;;;6.13;;
1545;SDS011;766;51.502;9.752;2023-12-14T02:06:54;8.20;;;5.45;;
1545;SDS011;766;51.502;9.752;2023-12-14T02:09:22;6.78;;;5.35;;
1545;SDS011;766;51.502;9.752;2023-12-14T02:11:51;6.55;;;5.45;;
1545;SDS011;766;51.502;9.752;2023-12-14T02:14:21;6.20;;;4.65;;
1545;SDS011;766;51.502;9.752;2023-12-14T02:16:50;6.05;;;4.97;;
1545;SDS011;766;51.502;9.752;2023-12-14T02:19:18;6.40;;;5.03;;
1545;SDS011;766;51.502;9.752;2023-12-14T02:21:48;6.07;;;4.97;;
1545;SDS011;766;51.502;9.752;2023-12-14T02:24:17;7.13;;;4.95;;
1545;SDS011;766;51.502;9.752;2023-12-14T02:26:45;7.45;;;5.20;;
1545;SDS011;766;51.502;9.752;2023-12-14T02:29:29;6.72;;;5.00;;
1545;SDS011;766;51.502;9.752;2023-12-14T02:31:57;5.15;;;3.90;;
1545;SDS011;766;51.502;9.752;2023-12-14T02:34:25;6.18;;;4.18;;
1545;SDS011;766;51.502;9.752;2023-12-14T02:36:57;4.22;;;3.20;;
1545;SDS011;766;51.502;9.752;2023-12-14T02:39:26;4.03;;;3.28;;
1545;SDS011;766;51.502;9.752;2023-12-14T02:41:54;3.33;;;3.03;;
1545;SDS011;766;51.502;9.752;2023-12-14T02:44:22;3.25;;;2.63;;
1545;SDS011;766;51.502;9.752;2023-12-14T02:46:50;4.57;;;2.45;;
1545;SDS011;766;51.502;9.752;2023-12-14T02:49:19;3.25;;;2.60;;
1545;SDS011;766;51.502;9.752;2023-12-14T02:51:47;3.22;;;2.50;;
1545;SDS011;766;51.502;9.752;2023-12-14T02:54:15;3.28;;;2.30;;
1545;SDS011;766;51.502;9.752;2023-12-14T02:56:44;4.35;;;3.70;;
1545;SDS011;766;51.502;9.752;2023-12-14T02:59:13;3.30;;;2.72;;
1545;SDS011;766;51.502;9.752;2023-12-14T03:01:41;5.05;;;2.63;;
1545;SDS011;766;51.502;9.752;2023-12-14T03:04:09;2.78;;;2.45;;
1545;SDS011;766;51.502;9.752;2023-12-14T03:06:37;3.80;;;2.55;;
1545;SDS011;766;51.502;9.752;2023-12-14T03:09:05;2.95;;;2.42;;
1545;SDS011;766;51.502;9.752;2023-12-14T03:11:34;3.95;;;2.65;;
1545;SDS011;766;51.502;9.752;2023-12-14T03:14:03;3.65;;;2.58;;
1545;SDS011;766;51.502;9.752;2023-12-14T03:16:32;3.97;;;2.65;;
1545;SDS011;766;51.502;9.752;2023-12-14T03:19:01;3.97;;;2.80;;
1545;SDS011;766;51.502;9.752;2023-12-14T03:21:30;6.07;;;2.35;;
1545;SDS011;766;51.502;9.752;2023-12-14T03:23:58;2.80;;;2.42;;
1545;SDS011;766;51.502;9.752;2023-12-14T03:26:27;3.30;;;2.65;;
1545;SDS011;766;51.502;9.752;2023-12-14T03:28:55;3.60;;;2.83;;
1545;SDS011;766;51.502;9.752;2023-12-14T03:31:24;2.30;;;2.10;;
1545;SDS011;766;51.502;9.752;2023-12-14T03:33:52;3.25;;;2.40;;
1545;SDS011;766;51.502;9.752;2023-12-14T03:36:21;7.30;;;2.70;;
1545;SDS011;766;51.502;9.752;2023-12-14T03:38:55;3.13;;;2.70;;
1545;SDS011;766;51.502;9.752;2023-12-14T03:41:23;3.42;;;2.47;;
1545;SDS011;766;51.502;9.752;2023-12-14T03:43:52;4.30;;;2.92;;
1545;SDS011;766;51.502;9.752;2023-12-14T03:46:20;4.28;;;3.13;;
1545;SDS011;766;51.502;9.752;2023-12-14T03:48:50;3.22;;;2.60;;
1545;SDS011;766;51.502;9.752;2023-12-14T03:51:18;3.53;;;2.60;;
1545;SDS011;766;51.502;9.752;2023-12-14T03:53:46;3.53;;;2.90;;
1545;SDS011;766;51.502;9.752;2023-12-14T03:56:14;3.30;;;2.88;;
1545;SDS011;766;51.502;9.752;2023-12-14T03:58:43;3.60;;;2.75;;
1545;SDS011;766;51.502;9.752;2023-12-14T04:01:17;4.65;;;3.05;;
1545;SDS011;766;51.502;9.752;2023-12-14T04:03:46;5.03;;;3.17;;
1545;SDS011;766;51.502;9.752;2023-12-14T04:06:15;5.25;;;3.28;;
1545;SDS011;766;51.502;9.752;2023-12-14T04:08:44;4.38;;;3.47;;
1545;SDS011;766;51.502;9.752;2023-12-14T04:11:12;4.63;;;3.40;;
1545;SDS011;766;51.502;9.752;2023-12-14T04:13:40;4.78;;;3.78;;
1545;SDS011;766;51.502;9.752;2023-12-14T04:16:08;5.53;;;3.83;;
1545;SDS011;766;51.502;9.752;2023-12-14T04:18:36;4.40;;;3.65;;
1545;SDS011;766;51.502;9.752;2023-12-14T04:21:06;4.13;;;3.60;;
1545;SDS011;766;51.502;9.752;2023-12-14T04:23:35;4.63;;;3.80;;
1545;SDS011;766;51.502;9.752;2023-12-14T04:26:03;4.25;;;3.50;;
1545;SDS011;766;51.502;9.752;2023-12-14T04:28:32;4.70;;;3.70;;
1545;SDS011;766;51.502;9.752;2023-12-14T04:31:00;4.28;;;3.42;;
1545;SDS011;766;51.502;9.752;2023-12-14T04:33:28;4.32;;;3.47;;
1545;SDS011;766;51.502;9.752;2023-12-14T04:35:58;5.30;;;3.67;;
1545;SDS011;766;51.502;9.752;2023-12-14T04:38:26;3.45;;;3.00;;
1545;SDS011;766;51.502;9.752;2023-12-14T04:40:59;4.55;;;3.42;;
1545;SDS011;766;51.502;9.752;2023-12-14T04:43:27;5.47;;;3.50;;
1545;SDS011;766;51.502;9.752;2023-12-14T04:45:57;5.32;;;3.35;;
1545;SDS011;766;51.502;9.752;2023-12-14T04:48:25;4.85;;;3.53;;
1545;SDS011;766;51.502;9.752;2023-12-14T04:50:53;3.40;;;3.00;;
1545;SDS011;766;51.502;9.752;2023-12-14T04:53:21;3.67;;;2.95;;
1545;SDS011;766;51.502;9.752;2023-12-14T04:55:49;3.75;;;2.72;;
1545;SDS011;766;51.502;9.752;2023-12-14T04:58:19;3.28;;;2.97;;
1545;SDS011;766;51.502;9.752;2023-12-14T05:00:47;3.15;;;2.65;;
1545;SDS011;766;51.502;9.752;2023-12-14T05:03:15;3.60;;;2.70;;
1545;SDS011;766;51.502;9.752;2023-12-14T05:05:44;3.25;;;2.75;;
1545;SDS011;766;51.502;9.752;2023-12-14T05:08:12;3.00;;;2.65;;
1545;SDS011;766;51.502;9.752;2023-12-14T05:10:40;3.00;;;2.60;;
1545;SDS011;766;51.502;9.752;2023-12-14T05:13:08;3.83;;;2.42;;
1545;SDS011;766;51.502;9.752;2023-12-14T05:15:38;2.53;;;2.33;;
1545;SDS011;766;51.502;9.752;2023-12-14T05:18:09;2.45;;;2.25;;
1545;SDS011;766;51.502;9.752;2023-12-14T05:20:37;3.60;;;2.15;;
1545;SDS011;766;51.502;9.752;2023-12-14T05:23:05;2.17;;;1.70;;
1545;SDS011;766;51.502;9.752;2023-12-14T05:25:34;3.80;;;2.33;;
1545;SDS011;766;51.502;9.752;2023-12-14T05:28:02;1.73;;;1.63;;
1545;SDS011;766;51.502;9.752;2023-12-14T05:30:30;2.30;;;2.10;;
1545;SDS011;766;51.502;9.752;2023-12-14T05:33:00;6.35;;;1.80;;
1545;SDS011;766;51.502;9.752;2023-12-14T05:35:29;3.25;;;1.70;;
1545;SDS011;766;51.502;9.752;2023-12-14T05:37:57;2.17;;;1.95;;
1545;SDS011;766;51.502;9.752;2023-12-14T05:40:25;2.38;;;1.70;;
1545;SDS011;766;51.502;9.752;2023-12-14T05:42:56;2.30;;;2.00;;
1545;SDS011;766;51.502;9.752;2023-12-14T05:45:25;2.10;;;1.85;;
1545;SDS011;766;51.502;9.752;2023-12-14T05:47:53;2.80;;;2.30;;
1545;SDS011;766;51.502;9.752;2023-12-14T05:50:23;2.80;;;2.50;;
1545;SDS011;766;51.502;9.752;2023-12-14T05:52:51;7.22;;;2.63;;
1545;SDS011;766;51.502;9.752;2023-12-14T05:55:19;3.92;;;2.33;;
1545;SDS011;766;51.502;9.752;2023-12-14T05:57:48;2.47;;;2.25;;
1545;SDS011;766;51.502;9.752;2023-12-14T06:00:17;2.97;;;2.45;;
1545;SDS011;766;51.502;9.752;2023-12-14T06:02:45;3.22;;;2.50;;
1545;SDS011;766;51.502;9.752;2023-12-14T06:05:14;3.47;;;2.90;;
1545;SDS011;766;51.502;9.752;2023-12-14T06:07:43;4.03;;;3.15;;
1545;SDS011;766;51.502;9.752;2023-12-14T06:10:11;3.88;;;3.22;;
1545;SDS011;766;51.502;9.752;2023-12-14T06:12:40;3.88;;;3.20;;
1545;SDS011;766;51.502;9.752;2023-12-14T06:15:08;3.75;;;3.20;;
1545;SDS011;766;51.502;9.752;2023-12-14T06:17:37;4.25;;;3.35;;
1545;SDS011;766;51.502;9.752;2023-12-14T06:20:07;3.60;;;3.00;;
1545;SDS011;766;51.502;9.752;2023-12-14T06:22:36;4.43;;;3.13;;
1545;SDS011;766;51.502;9.752;2023-12-14T06:25:06;3.58;;;3.15;;
1545;SDS011;766;51.502;9.752;2023-12-14T06:27:35;3.70;;;3.20;;
1545;SDS011;766;51.502;9.752;2023-12-14T06:30:03;4.13;;;2.97;;
1545;SDS011;766;51.502;9.752;2023-12-14T06:32:32;2.92;;;2.65;;
1545;SDS011;766;51.502;9.752;2023-12-14T06:35:01;3.92;;;3.00;;
1545;SDS011;766;51.502;9.752;2023-12-14T06:37:29;3.90;;;3.20;;
1545;SDS011;766;51.502;9.752;2023-12-14T06:39:58;4.22;;;3.08;;
1545;SDS011;766;51.502;9.752;2023-12-14T06:42:28;3.60;;;3.08;;
1545;SDS011;766;51.502;9.752;2023-12-14T06:44:57;3.83;;;3.10;;
1545;SDS011;766;51.502;9.752;2023-12-14T06:47:26;3.78;;;3.30;;
1545;SDS011;766;51.502;9.752;2023-12-14T06:49:55;3.85;;;3.05;;
1545;SDS011;766;51.502;9.752;2023-12-14T06:52:23;5.68;;;2.78;;
1545;SDS011;766;51.502;9.752;2023-12-14T06:54:52;4.05;;;3.17;;
1545;SDS011;766;51.502;9.752;2023-12-14T06:57:21;3.92;;;3.05;;
1545;SDS011;766;51.502;9.752;2023-12-14T06:59:54;3.05;;;2.58;;
1545;SDS011;766;51.502;9.752;2023-12-14T07:02:22;2.92;;;2.47;;
1545;SDS011;766;51.502;9.752;2023-12-14T07:04:50;2.83;;;2.53;;
1545;SDS011;766;51.502;9.752;2023-12-14T07:07:18;3.30;;;2.72;;
1545;SDS011;766;51.502;9.752;2023-12-14T07:09:47;3.45;;;2.80;;
1545;SDS011;766;51.502;9.752;2023-12-14T07:12:15;3.70;;;2.85;;
1545;SDS011;766;51.502;9.752;2023-12-14T07:14:43;3.95;;;3.20;;
1545;SDS011;766;51.502;9.752;2023-12-14T07:17:12;3.65;;;3.25;;
1545;SDS011;766;51.502;9.752;2023-12-14T07:19:41;3.00;;;2.55;;
1545;SDS011;766;51.502;9.752;2023-12-14T07:22:09;3.25;;;2.90;;
1545;SDS011;766;51.502;9.752;2023-12-14T07:24:37;3.78;;;3.38;;
1545;SDS011;766;51.502;9.752;2023-12-14T07:27:17;4.10;;;3.60;;
1545;SDS011;766;51.502;9.752;2023-12-14T07:29:46;3.70;;;3.20;;
1545;SDS011;766;51.502;9.752;2023-12-14T07:32:15;4.18;;;3.35;;
1545;SDS011;766;51.502;9.752;2023-12-14T07:34:44;4.28;;;3.40;;
1545;SDS011;766;51.502;9.752;2023-12-14T07:37:12;3.67;;;3.22;;
1545;SDS011;766;51.502;9.752;2023-12-14T07:39:40;3.55;;;3.25;;
1545;SDS011;766;51.502;9.752;2023-12-14T07:42:08;3.65;;;2.75;;
1545;SDS011;766;51.502;9.752;2023-12-14T07:44:37;4.30;;;3.53;;
1545;SDS011;766;51.502;9.752;2023-12-14T07:47:07;5.32;;;3.25;;
1545;SDS011;766;51.502;9.752;2023-12-14T07:49:36;4.90;;;3.10;;
1545;SDS011;766;51.502;9.752;2023-12-14T07:52:05;3.88;;;3.08;;
1545;SDS011;766;51.502;9.752;2023-12-14T07:54:34;3.75;;;2.78;;
1545;SDS011;766;51.502;9.752;2023-12-14T07:57:03;2.92;;;2.45;;
1545;SDS011;766;51.502;9.752;2023-12-14T07:59:31;4.03;;;2.33;;
1545;SDS011;766;51.502;9.752;2023-12-14T08:02:00;2.88;;;2.28;;
1545;SDS011;766;51.502;9.752;2023-12-14T08:04:30;2.58;;;1.83;;
1545;SDS011;766;51.502;9.752;2023-12-14T08:07:04;2.40;;;2.00;;
1545;SDS011;766;51.502;9.752;2023-12-14T08:09:32;2.97;;;2.35;;
1545;SDS011;766;51.502;9.752;2023-12-14T08:12:00;2.92;;;2.40;;
1545;SDS011;766;51.502;9.752;2023-12-14T08:14:29;2.42;;;2.22;;
1545;SDS011;766;51.502;9.752;2023-12-14T08:16:59;2.78;;;2.20;;
1545;SDS011;766;51.502;9.752;2023-12-14T08:19:27;2.60;;;2.40;;
1545;SDS011;766;51.502;9.752;2023-12-14T08:21:56;3.85;;;2.65;;
1545;SDS011;766;51.502;9.752;2023-12-14T08:24:26;2.97;;;2.28;;
1545;SDS011;766;51.502;9.752;2023-12-14T08:26:55;3.10;;;2.50;;
1545;SDS011;766;51.502;9.752;2023-12-14T08:29:23;4.88;;;2.83;;
1545;SDS011;766;51.502;9.752;2023-12-14T08:31:51;3.72;;;3.33;;
1545;SDS011;766;51.502;9.752;2023-12-14T08:34:19;5.85;;;4.15;;
1545;SDS011;766;51.502;9.752;2023-12-14T08:36:48;5.70;;;4.45;;
1545;SDS011;766;51.502;9.752;2023-12-14T08:39:16;4.90;;;3.90;;
1545;SDS011;766;51.502;9.752;2023-12-14T08:41:46;4.13;;;3.42;;
1545;SDS011;766;51.502;9.752;2023-12-14T08:44:15;4.07;;;3.60;;
1545;SDS011;766;51.502;9.752;2023-12-14T08:46:44;5.88;;;4.03;;
1545;SDS011;766;51.502;9.752;2023-12-14T08:49:13;5.68;;;4.32;;
1545;SDS011;766;51.502;9.752;2023-12-14T08:51:41;6.78;;;4.78;;
1545;SDS011;766;51.502;9.752;2023-12-14T08:54:10;5.18;;;4.20;;
1545;SDS011;766;51.502;9.752;2023-12-14T08:56:38;9.52;;;4.82;;
1545;SDS011;766;51.502;9.752;2023-12-14T08:59:07;8.63;;;4.72;;
1545;SDS011;766;51.502;9.752;2023-12-14T09:01:36;5.00;;;3.95;;
1545;SDS011;766;51.502;9.752;2023-12-14T09:04:04;6.55;;;4.70;;
1545;SDS011;766;51.502;9.752;2023-12-14T09:06:32;5.47;;;4.63;;
1545;SDS011;766;51.502;9.752;2023-12-14T09:09:01;6.22;;;4.43;;
1545;SDS011;766;51.502;9.752;2023-12-14T09:11:29;5.50;;;4.38;;
1545;SDS011;766;51.502;9.752;2023-12-14T09:13:57;5.45;;;4.53;;
1545;SDS011;766;51.502;9.752;2023-12-14T09:16:27;6.05;;;4.97;;
1545;SDS011;766;51.502;9.752;2023-12-14T09:18:55;7.20;;;5.45;;
1545;SDS011;766;51.502;9.752;2023-12-14T09:21:23;6.55;;;5.20;;
1545;SDS011;766;51.502;9.752;2023-12-14T09:24:06;7.38;;;5.70;;
1545;SDS011;766;51.502;9.752;2023-12-14T09:26:39;6.65;;;5.40;;
1545;SDS011;766;51.502;9.752;2023-12-14T09:29:07;5.07;;;4.50;;
1545;SDS011;766;51.502;9.752;2023-12-14T09:31:39;5.32;;;4.70;;
1545;SDS011;766;51.502;9.752;2023-12-14T09:34:09;5.20;;;4.43;;
1545;SDS011;766;51.502;9.752;2023-12-14T09:36:37;5.88;;;4.78;;
1545;SDS011;766;51.502;9.752;2023-12-14T09:39:05;5.03;;;4.38;;
1545;SDS011;766;51.502;9.752;2023-12-14T09:41:37;5.55;;;4.10;;
1545;SDS011;766;51.502;9.752;2023-12-14T09:44:06;4.95;;;3.95;;
1545;SDS011;766;51.502;9.752;2023-12-14T09:46:37;6.40;;;4.78;;
1545;SDS011;766;51.502;9.752;2023-12-14T09:49:08;6.78;;;5.45;;
1545;SDS011;766;51.502;9.752;2023-12-14T09:51:39;7.55;;;6.18;;
1545;SDS011;766;51.502;9.752;2023-12-14T09:54:07;7.45;;;6.65;;
1545;SDS011;766;51.502;9.752;2023-12-14T09:56:36;7.10;;;5.90;;
1545;SDS011;766;51.502;9.752;2023-12-14T09:59:13;7.22;;;6.20;;
1545;SDS011;766;51.502;9.752;2023-12-14T10:01:43;9.27;;;6.75;;
1545;SDS011;766;51.502;9.752;2023-12-14T10:04:12;9.45;;;6.75;;
1545;SDS011;766;51.502;9.752;2023-12-14T10:06:42;8.95;;;7.70;;
1545;SDS011;766;51.502;9.752;2023-12-14T10:09:11;8.02;;;6.53;;
1545;SDS011;766;51.502;9.752;2023-12-14T10:11:42;8.60;;;5.90;;
1545;SDS011;766;51.502;9.752;2023-12-14T10:14:18;7.43;;;6.45;;
1545;SDS011;766;51.502;9.752;2023-12-14T10:16:49;9.38;;;6.90;;
1545;SDS011;766;51.502;9.752;2023-12-14T10:19:21;7.82;;;6.43;;
1545;SDS011;766;51.502;9.752;2023-12-14T10:21:49;6.82;;;5.95;;
1545;SDS011;766;51.502;9.752;2023-12-14T10:24:18;6.75;;;6.05;;
1545;SDS011;766;51.502;9.752;2023-12-14T10:26:46;7.10;;;5.40;;
1545;SDS011;766;51.502;9.752;2023-12-14T10:29:15;6.38;;;5.00;;
1545;SDS011;766;51.502;9.752;2023-12-14T10:31:43;6.30;;;5.40;;
1545;SDS011;766;51.502;9.752;2023-12-14T10:34:13;5.10;;;4.55;;
1545;SDS011;766;51.502;9.752;2023-12-14T10:36:41;4.72;;;3.92;;
1545;SDS011;766;51.502;9.752;2023-12-14T10:39:14;4.45;;;3.58;;
1545;SDS011;766;51.502;9.752;2023-12-14T10:41:45;5.10;;;4.10;;
1545;SDS011;766;51.502;9.752;2023-12-14T10:44:24;3.80;;;3.38;;
1545;SDS011;766;51.502;9.752;2023-12-14T10:47:14;4.75;;;3.60;;
1545;SDS011;766;51.502;9.752;2023-12-14T10:49:48;5.20;;;4.10;;
1545;SDS011;766;51.502;9.752;2023-12-14T10:52:18;5.10;;;4.28;;
1545;SDS011;766;51.502;9.752;2023-12-14T10:54:49;5.57;;;4.32;;
1545;SDS011;766;51.502;9.752;2023-12-14T10:57:24;5.70;;;4.72;;
1545;SDS011;766;51.502;9.752;2023-12-14T10:59:55;4.85;;;3.85;;
1545;SDS011;766;51.502;9.752;2023-12-14T11:02:25;4.50;;;3.83;;
1545;SDS011;766;51.502;9.752;2023-12-14T11:04:55;3.47;;;3.05;;
1545;SDS011;766;51.502;9.752;2023-12-14T11:10:14;5.75;;;3.80;;
1545;SDS011;766;51.502;9.752;2023-12-14T11:12:54;3.38;;;3.03;;
1545;SDS011;766;51.502;9.752;2023-12-14T11:15:24;3.60;;;3.13;;
1545;SDS011;766;51.502;9.752;2023-12-14T11:20:54;3.78;;;3.42;;
1545;SDS011;766;51.502;9.752;2023-12-14T11:23:32;3.97;;;3.45;;
1545;SDS011;766;51.502;9.752;2023-12-14T11:26:03;4.93;;;3.70;;
1545;SDS011;766;51.502;9.752;2023-12-14T11:28:33;4.55;;;3.70;;
1545;SDS011;766;51.502;9.752;2023-12-14T11:31:02;4.60;;;3.70;;
1545;SDS011;766;51.502;9.752;2023-12-14T11:33:34;3.35;;;3.05;;
1545;SDS011;766;51.502;9.752;2023-12-14T11:36:10;2.95;;;2.50;;
1545;SDS011;766;51.502;9.752;2023-12-14T11:38:40;3.97;;;2.33;;
1545;SDS011;766;51.502;9.752;2023-12-14T11:41:09;5.78;;;2.78;;
1545;SDS011;766;51.502;9.752;2023-12-14T11:43:40;3.83;;;3.42;;
1545;SDS011;766;51.502;9.752;2023-12-14T11:46:09;4.10;;;3.30;;
1545;SDS011;766;51.502;9.752;2023-12-14T11:48:38;4.30;;;3.28;;
1545;SDS011;766;51.502;9.752;2023-12-14T11:51:08;4.30;;;3.60;;
1545;SDS011;766;51.502;9.752;2023-12-14T11:53:38;4.35;;;3.15;;
1545;SDS011;766;51.502;9.752;2023-12-14T11:56:07;2.95;;;2.63;;
1545;SDS011;766;51.502;9.752;2023-12-14T11:58:36;2.90;;;2.53;;
1545;SDS011;766;51.502;9.752;2023-12-14T12:01:15;4.97;;;2.78;;
1545;SDS011;766;51.502;9.752;2023-12-14T12:03:44;3.25;;;2.55;;
1545;SDS011;766;51.502;9.752;2023-12-14T12:06:20;3.45;;;2.78;;
1545;SDS011;766;51.502;9.752;2023-12-14T12:08:51;4.55;;;2.47;;
1545;SDS011;766;51.502;9.752;2023-12-14T12:11:20;4.25;;;2.88;;
1545;SDS011;766;51.502;9.752;2023-12-14T12:13:50;3.95;;;3.38;;
1545;SDS011;766;51.502;9.752;2023-12-14T12:16:19;2.67;;;2.30;;
1545;SDS011;766;51.502;9.752;2023-12-14T12:18:47;4.10;;;2.75;;
1545;SDS011;766;51.502;9.752;2023-12-14T12:21:17;3.55;;;2.92;;
1545;SDS011;766;51.502;9.752;2023-12-14T12:23:45;3.80;;;2.97;;
1545;SDS011;766;51.502;9.752;2023-12-14T12:26:15;3.47;;;2.90;;
1545;SDS011;766;51.502;9.752;2023-12-14T12:28:46;3.35;;;3.05;;
1545;SDS011;766;51.502;9.752;2023-12-14T12:31:15;3.00;;;2.63;;
1545;SDS011;766;51.502;9.752;2023-12-14T12:33:44;4.05;;;2.92;;
1545;SDS011;766;51.502;9.752;2023-12-14T12:36:12;3.45;;;3.15;;
1545;SDS011;766;51.502;9.752;2023-12-14T12:38:40;3.72;;;2.90;;
1545;SDS011;766;51.502;9.752;2023-12-14T12:41:09;4.60;;;3.22;;
1545;SDS011;766;51.502;9.752;2023-12-14T12:43:38;5.22;;;3.47;;
1545;SDS011;766;51.502;9.752;2023-12-14T12:46:07;3.78;;;3.00;;
1545;SDS011;766;51.502;9.752;2023-12-14T12:48:37;4.03;;;3.20;;
1545;SDS011;766;51.502;9.752;2023-12-14T12:51:06;4.10;;;2.97;;
1545;SDS011;766;51.502;9.752;2023-12-14T12:53:34;4.72;;;3.30;;
1545;SDS011;766;51.502;9.752;2023-12-14T12:56:03;7.28;;;3.80;;
1545;SDS011;766;51.502;9.752;2023-12-14T12:58:31;4.90;;;3.67;;
1545;SDS011;766;51.502;9.752;2023-12-14T13:01:01;5.03;;;3.10;;
1545;SDS011;766;51.502;9.752;2023-12-14T13:03:29;4.97;;;3.60;;
1545;SDS011;766;51.502;9.752;2023-12-14T13:05:57;3.85;;;3.17;;
1545;SDS011;766;51.502;9.752;2023-12-14T13:08:26;4.65;;;3.38;;
1545;SDS011;766;51.502;9.752;2023-12-14T13:10:54;5.53;;;3.90;;
1545;SDS011;766;51.502;9.752;2023-12-14T13:13:22;5.03;;;3.25;;
1545;SDS011;766;51.502;9.752;2023-12-14T13:15:50;3.42;;;3.00;;
1545;SDS011;766;51.502;9.752;2023-12-14T13:18:20;4.18;;;3.42;;
1545;SDS011;766;51.502;9.752;2023-12-14T13:20:48;4.68;;;3.60;;
1545;SDS011;766;51.502;9.752;2023-12-14T13:23:16;4.28;;;3.50;;
1545;SDS011;766;51.502;9.752;2023-12-14T13:25:45;5.03;;;3.55;;
1545;SDS011;766;51.502;9.752;2023-12-14T13:28:13;4.78;;;3.75;;
1545;SDS011;766;51.502;9.752;2023-12-14T13:30:43;5.53;;;3.47;;
1545;SDS011;766;51.502;9.752;2023-12-14T13:33:12;8.45;;;4.13;;
1545;SDS011;766;51.502;9.752;2023-12-14T13:35:42;4.03;;;3.20;;
1545;SDS011;766;51.502;9.752;2023-12-14T13:38:10;4.10;;;2.97;;
1545;SDS011;766;51.502;9.752;2023-12-14T13:40:41;5.22;;;3.50;;
1545;SDS011;766;51.502;9.752;2023-12-14T13:43:10;3.20;;;2.90;;
1545;SDS011;766;51.502;9.752;2023-12-14T13:45:38;3.95;;;3.22;;
1545;SDS011;766;51.502;9.752;2023-12-14T13:48:08;3.20;;;2.90;;
1545;SDS011;766;51.502;9.752;2023-12-14T13:50:37;4.75;;;3.78;;
1545;SDS011;766;51.502;9.752;2023-12-14T13:53:06;5.28;;;3.63;;
1545;SDS011;766;51.502;9.752;2023-12-14T13:55:34;4.13;;;3.67;;
1545;SDS011;766;51.502;9.752;2023-12-14T13:58:02;4.93;;;4.15;;
1545;SDS011;766;51.502;9.752;2023-12-14T14:00:31;4.88;;;3.97;;
1545;SDS011;766;51.502;9.752;2023-12-14T14:03:01;7.47;;;4.43;;
1545;SDS011;766;51.502;9.752;2023-12-14T14:05:30;5.13;;;4.18;;
1545;SDS011;766;51.502;9.752;2023-12-14T14:07:59;5.47;;;4.97;;
1545;SDS011;766;51.502;9.752;2023-12-14T14:10:32;10.23;;;5.63;;
1545;SDS011;766;51.502;9.752;2023-12-14T14:13:00;6.82;;;5.22;;
1545;SDS011;766;51.502;9.752;2023-12-14T14:15:29;7.22;;;5.40;;
1545;SDS011;766;51.502;9.752;2023-12-14T14:17:57;6.10;;;5.00;;
1545;SDS011;766;51.502;9.752;2023-12-14T14:20:28;7.88;;;6.53;;
1545;SDS011;766;51.502;9.752;2023-12-14T14:22:56;9.82;;;6.28;;
1545;SDS011;766;51.502;9.752;2023-12-14T14:25:26;8.10;;;6.40;;
1545;SDS011;766;51.502;9.752;2023-12-14T14:27:55;9.88;;;6.72;;
1545;SDS011;766;51.502;9.752;2023-12-14T14:30:25;9.93;;;7.35;;
1545;SDS011;766;51.502;9.752;2023-12-14T14:32:53;10.98;;;7.40;;
1545;SDS011;766;51.502;9.752;2023-12-14T14:35:22;8.65;;;6.80;;
1545;SDS011;766;51.502;9.752;2023-12-14T14:37:51;10.75;;;7.53;;
1545;SDS011;766;51.502;9.752;2023-12-14T14:40:19;10.68;;;7.60;;
1545;SDS011;766;51.502;9.752;2023-12-14T14:42:48;10.52;;;7.50;;
1545;SDS011;766;51.502;9.752;2023-12-14T14:45:18;8.25;;;6.85;;
1545;SDS011;766;51.502;9.752;2023-12-14T14:47:46;11.18;;;8.45;;
1545;SDS011;766;51.502;9.752;2023-12-14T14:50:15;12.15;;;8.63;;
1545;SDS011;766;51.502;9.752;2023-12-14T14:52:43;9.30;;;7.80;;
1545;SDS011;766;51.502;9.752;2023-12-14T14:55:11;9.20;;;7.70;;
1545;SDS011;766;51.502;9.752;2023-12-14T14:57:39;10.30;;;7.97;;
1545;SDS011;766;51.502;9.752;2023-12-14T15:00:08;10.70;;;9.02;;
1545;SDS011;766;51.502;9.752;2023-12-14T15:02:38;9.52;;;7.75;;
1545;SDS011;766;51.502;9.752;2023-12-14T15:05:07;11.32;;;9.15;;
1545;SDS011;766;51.502;9.752;2023-12-14T15:07:36;10.57;;;9.00;;
1545;SDS011;766;51.502;9.752;2023-12-14T15:10:04;10.88;;;9.35;;
1545;SDS011;766;51.502;9.752;2023-12-14T15:12:34;10.82;;;8.95;;
1545;SDS011;766;51.502;9.752;2023-12-14T15:15:02;10.02;;;8.05;;
1545;SDS011;766;51.502;9.752;2023-12-14T15:17:35;10.40;;;8.10;;
1545;SDS011;766;51.502;9.752;2023-12-14T15:20:06;8.77;;;7.35;;
1545;SDS011;766;51.502;9.752;2023-12-14T15:22:35;9.15;;;8.05;;
1545;SDS011;766;51.502;9.752;2023-12-14T15:25:04;9.07;;;7.95;;
1545;SDS011;766;51.502;9.752;2023-12-14T15:27:33;9.40;;;7.57;;
1545;SDS011;766;51.502;9.752;2023-12-14T15:30:01;11.40;;;7.40;;
1545;SDS011;766;51.502;9.752;2023-12-14T15:32:31;8.88;;;7.25;;
1545;SDS011;766;51.502;9.752;2023-12-14T15:35:00;9.43;;;7.78;;
1545;SDS011;766;51.502;9.752;2023-12-14T15:37:29;9.60;;;7.82;;
1545;SDS011;766;51.502;9.752;2023-12-14T15:39:58;11.02;;;7.82;;
1545;SDS011;766;51.502;9.752;2023-12-14T15:42:26;8.90;;;7.28;;
1545;SDS011;766;51.502;9.752;2023-12-14T15:44:54;8.40;;;6.85;;